createdAt,value
2023-11-07T00:02:16.952Z,99918.63
2023-11-07T00:04:43.360Z,99924.16
2023-11-07T00:07:09.758Z,99919.41
2023-11-07T00:09:36.197Z,99928.22
2023-11-07T00:12:02.607Z,99934.13
2023-11-07T00:14:29.059Z,99935.31
2023-11-07T00:16:55.469Z,99936.78
2023-11-07T00:19:21.946Z,99937.78
2023-11-07T00:21:48.376Z,99941.31
2023-11-07T00:24:14.805Z,99947.66
2023-11-07T00:26:41.247Z,99947.75
2023-11-07T00:29:07.739Z,99946.09
2023-11-07T00:31:34.145Z,99958.06
2023-11-07T00:34:01.531Z,99961.19
2023-11-07T00:36:28.049Z,99961.97
2023-11-07T00:38:54.534Z,99959.63
2023-11-07T00:41:20.937Z,99964.34
2023-11-07T00:43:47.332Z,99961.25
2023-11-07T00:46:13.753Z,99956.88
2023-11-07T00:48:40.254Z,99960.44
2023-11-07T00:51:06.849Z,99959.63
2023-11-07T00:53:33.325Z,99964.78
2023-11-07T00:55:59.729Z,99959.19
2023-11-07T00:58:26.146Z,99961.97
2023-11-07T01:00:52.566Z,99974.28
2023-11-07T01:03:19.069Z,99973.16
2023-11-07T01:05:45.652Z,99968.34
2023-11-07T01:08:12.177Z,99977.91
2023-11-07T01:10:38.598Z,99971.91
2023-11-07T01:13:05.014Z,99969.19
2023-11-07T01:15:31.441Z,99971.16
2023-11-07T01:17:57.972Z,99964.84
2023-11-07T01:20:24.498Z,99971.97
2023-11-07T01:22:50.930Z,99970.47
2023-11-07T01:25:18.239Z,99968.50
2023-11-07T01:27:44.710Z,99971.31
2023-11-07T01:30:11.165Z,99971.66
2023-11-07T01:32:37.794Z,99965.69
2023-11-07T01:35:04.386Z,99971.28
2023-11-07T01:37:30.792Z,99970.75
2023-11-07T01:39:57.212Z,99971.22
2023-11-07T01:42:23.620Z,99976.28
2023-11-07T01:44:50.098Z,99978.81
2023-11-07T01:47:16.514Z,99967.72
2023-11-07T01:49:42.910Z,99976.84
2023-11-07T01:52:09.373Z,99969.59
2023-11-07T01:54:35.797Z,99969.69
2023-11-07T01:57:02.244Z,99968.09
2023-11-07T01:59:28.693Z,99978.41
2023-11-07T02:01:55.122Z,99981.22
2023-11-07T02:04:21.670Z,99971.66
2023-11-07T02:06:48.171Z,99972.91
2023-11-07T02:09:14.592Z,99970.88
2023-11-07T02:11:41.043Z,99981.13
2023-11-07T02:14:07.703Z,99973.25
2023-11-07T02:16:34.164Z,99980.97
2023-11-07T02:19:00.768Z,99978.56
2023-11-07T02:21:27.268Z,99986.06
2023-11-07T02:23:53.743Z,99986.06
2023-11-07T02:26:21.082Z,99980.56
2023-11-07T02:28:47.492Z,99979.72
2023-11-07T02:31:13.908Z,99982.50
2023-11-07T02:33:40.467Z,99975.03
2023-11-07T02:36:07.001Z,99976.56
2023-11-07T02:38:33.507Z,99975.41
2023-11-07T02:40:59.951Z,99983.31
2023-11-07T02:43:26.360Z,99984.47
2023-11-07T02:45:52.755Z,99972.63
2023-11-07T02:48:19.347Z,99977.78
2023-11-07T02:50:46.037Z,99978.16
2023-11-07T02:53:12.563Z,99970.66
2023-11-07T02:55:39.205Z,99968.28
2023-11-07T02:58:05.677Z,99973.44
2023-11-07T03:00:32.096Z,99975.44
2023-11-07T03:02:58.576Z,99971.84
2023-11-07T03:05:25.011Z,99997.25
2023-11-07T03:07:51.506Z,99995.28
2023-11-07T03:10:17.953Z,99992.88
2023-11-07T03:12:44.375Z,99985.34
2023-11-07T03:15:10.822Z,99990.91
2023-11-07T03:17:37.435Z,99993.25
2023-11-07T03:20:03.901Z,99991.69
2023-11-07T03:22:30.347Z,99990.09
2023-11-07T03:24:56.814Z,99997.63
2023-11-07T03:27:23.241Z,100001.16
2023-11-07T03:29:49.684Z,99997.22
2023-11-07T03:32:16.105Z,99996.44
2023-11-07T03:34:42.513Z,99998.84
2023-11-07T03:37:08.952Z,99991.69
2023-11-07T03:39:35.400Z,99994.84
2023-11-07T03:42:01.850Z,99991.69
2023-11-07T03:44:28.314Z,99993.69
2023-11-07T03:46:54.728Z,100003.97
2023-11-07T03:49:21.238Z,100002.00
2023-11-07T03:51:47.699Z,100007.53
2023-11-07T03:54:14.163Z,100010.72
2023-11-07T03:56:40.607Z,100004.41
2023-11-07T03:59:07.064Z,100006.38
2023-11-07T04:01:33.607Z,100001.59
2023-11-07T04:04:00.135Z,100005.97
2023-11-07T04:06:26.622Z,100006.41
2023-11-07T04:08:53.127Z,100003.59
2023-11-07T04:11:19.549Z,99994.47
2023-11-07T04:13:45.985Z,99998.06
2023-11-07T04:16:13.257Z,99993.66
2023-11-07T04:18:39.778Z,99995.28
2023-11-07T04:21:06.305Z,100000.41
2023-11-07T04:23:32.804Z,100003.19
2023-11-07T04:25:59.300Z,100003.56
2023-11-07T04:28:25.742Z,100001.56
2023-11-07T04:30:52.220Z,100002.75
2023-11-07T04:33:19.100Z,100003.59
2023-11-07T04:35:45.615Z,100011.06
2023-11-07T04:38:12.089Z,100015.06
2023-11-07T04:40:38.473Z,100020.19
2023-11-07T04:43:05.003Z,100015.81
2023-11-07T04:45:31.502Z,100018.56
2023-11-07T04:47:58.061Z,100022.53
2023-11-07T04:50:24.561Z,100010.19
2023-11-07T04:52:50.969Z,100015.63
2023-11-07T04:55:17.427Z,100021.94
2023-11-07T04:57:43.827Z,100013.59
2023-11-07T05:00:10.267Z,100014.78
2023-11-07T05:02:36.791Z,100004.44
2023-11-07T05:05:06.038Z,100013.97
2023-11-07T05:07:32.459Z,100009.56
2023-11-07T05:09:58.826Z,100002.03
2023-11-07T05:12:25.271Z,100015.94
2023-11-07T05:14:51.717Z,100017.91
2023-11-07T05:17:18.159Z,100018.22
2023-11-07T05:19:44.657Z,100021.41
2023-11-07T05:22:11.093Z,100021.78
2023-11-07T05:24:37.485Z,100022.13
2023-11-07T05:27:03.929Z,100026.06
2023-11-07T05:29:30.321Z,100026.47
2023-11-07T05:31:56.713Z,100027.75
2023-11-07T05:34:23.173Z,100029.28
2023-11-07T05:36:49.590Z,100033.53
2023-11-07T05:39:17.115Z,100033.22
2023-11-07T05:41:43.654Z,100041.59
2023-11-07T05:44:10.997Z,100043.66
2023-11-07T05:46:37.442Z,100044.88
2023-11-07T05:49:04.032Z,100049.25
2023-11-07T05:51:30.626Z,100047.28
2023-11-07T05:53:58.204Z,100058.03
2023-11-07T05:56:24.689Z,100052.44
2023-11-07T05:58:51.116Z,100058.44
2023-11-07T06:01:18.437Z,100056.06
2023-11-07T06:03:44.944Z,100059.66
2023-11-07T06:06:11.686Z,100062.41
2023-11-07T06:08:38.305Z,100056.03
2023-11-07T06:11:04.797Z,100054.88
2023-11-07T06:13:31.242Z,100065.16
2023-11-07T06:15:57.647Z,100069.13
2023-11-07T06:18:24.169Z,100067.94
2023-11-07T06:20:50.802Z,100065.56
2023-11-07T06:23:18.310Z,100064.00
2023-11-07T06:25:45.620Z,100067.63
2023-11-07T06:28:13.978Z,100075.13
2023-11-07T06:30:41.301Z,100071.97
2023-11-07T06:33:08.854Z,100073.94
2023-11-07T06:35:35.353Z,100075.50
2023-11-07T06:38:03.741Z,100079.44
2023-11-07T06:40:32.134Z,100077.84
2023-11-07T06:42:58.648Z,100088.97
2023-11-07T06:45:26.100Z,100085.78
2023-11-07T06:47:52.799Z,100087.78
2023-11-07T06:50:19.472Z,100085.41
2023-11-07T06:52:47.862Z,100083.41
2023-11-07T06:55:15.527Z,100081.03
2023-11-07T06:57:42.125Z,100088.94
2023-11-07T07:00:09.474Z,100096.44
2023-11-07T07:02:38.085Z,100101.22
2023-11-07T07:05:06.575Z,100093.66
2023-11-07T07:07:33.156Z,100101.97
2023-11-07T07:09:59.711Z,100104.38
2023-11-07T07:12:27.132Z,100095.63
2023-11-07T07:14:53.814Z,100112.31
2023-11-07T07:17:20.353Z,100107.56
2023-11-07T07:19:46.847Z,100117.91
2023-11-07T07:22:13.326Z,100121.06
2023-11-07T07:24:39.873Z,100117.53
2023-11-07T07:27:06.776Z,100133.78
2023-11-07T07:29:33.436Z,100129.00
2023-11-07T07:32:00.203Z,100129.38
2023-11-07T07:34:27.036Z,100135.34
2023-11-07T07:36:54.883Z,100132.97
2023-11-07T07:39:21.766Z,100131.81
2023-11-07T07:41:48.736Z,100137.34
2023-11-07T07:44:16.500Z,100130.19
2023-11-07T07:46:43.314Z,100142.84
2023-11-07T07:49:10.218Z,100144.81
2023-11-07T07:51:37.092Z,100139.66
2023-11-07T07:54:03.993Z,100147.19
2023-11-07T07:56:30.977Z,100141.66
2023-11-07T07:58:58.592Z,100150.38
2023-11-07T08:01:26.080Z,100152.78
2023-11-07T08:03:53.654Z,100146.44
2023-11-07T08:06:20.334Z,100145.28
2023-11-07T08:08:47.897Z,100156.75
2023-11-07T08:11:14.469Z,100157.94
2023-11-07T08:13:41.065Z,100155.53
2023-11-07T08:16:11.043Z,100151.63
2023-11-07T08:18:39.167Z,100150.03
2023-11-07T08:21:06.708Z,100162.66
2023-11-07T08:23:34.249Z,100167.84
2023-11-07T08:26:00.786Z,100165.06
2023-11-07T08:28:28.261Z,100173.00
2023-11-07T08:30:54.795Z,100167.47
2023-11-07T08:33:22.313Z,100169.44
2023-11-07T08:35:49.868Z,100175.78
2023-11-07T08:38:17.366Z,100178.13
2023-11-07T08:40:44.853Z,100179.34
2023-11-07T08:43:12.318Z,100177.38
2023-11-07T08:45:38.854Z,100185.66
2023-11-07T08:48:05.525Z,100181.31
2023-11-07T08:50:32.985Z,100192.47
2023-11-07T08:52:59.502Z,100190.47
2023-11-07T08:55:27.532Z,100180.13
2023-11-07T08:57:54.275Z,100187.25
2023-11-07T09:00:21.766Z,100186.06
2023-11-07T09:02:49.361Z,100185.63
2023-11-07T09:05:16.049Z,100184.06
2023-11-07T09:07:42.826Z,100191.22
2023-11-07T09:10:09.401Z,100192.78
2023-11-07T09:12:36.814Z,100192.78
2023-11-07T09:15:03.374Z,100195.13
2023-11-07T09:17:31.714Z,100197.38
2023-11-07T09:19:59.913Z,100199.28
2023-11-07T09:22:26.481Z,100195.25
2023-11-07T09:24:53.928Z,100204.69
2023-11-07T09:27:20.462Z,100201.59
2023-11-07T09:29:47.875Z,100203.09
2023-11-07T09:32:15.223Z,100204.59
2023-11-07T09:34:41.889Z,100213.31
2023-11-07T09:37:08.547Z,100205.31
2023-11-07T09:39:35.134Z,100213.56
2023-11-07T09:42:02.478Z,100211.13
2023-11-07T09:44:28.977Z,100206.94
2023-11-07T09:46:55.468Z,100209.75
2023-11-07T09:49:21.920Z,100216.59
2023-11-07T09:51:48.326Z,100218.00
2023-11-07T09:54:18.358Z,100214.75
2023-11-07T09:56:44.932Z,100222.38
2023-11-07T09:59:12.290Z,100235.59
2023-11-07T10:01:38.768Z,100226.50
2023-11-07T10:04:05.733Z,100220.00
2023-11-07T10:06:32.293Z,100219.34
2023-11-07T10:08:58.751Z,100229.31
2023-11-07T10:11:25.191Z,100213.81
2023-11-07T10:13:51.685Z,100223.69
2023-11-07T10:16:19.457Z,100218.06
2023-11-07T10:18:46.055Z,100219.69
2023-11-07T10:21:12.531Z,100226.44
2023-11-07T10:23:38.972Z,100229.16
2023-11-07T10:26:05.402Z,100222.41
2023-11-07T10:28:31.804Z,100224.38
2023-11-07T10:30:58.194Z,100227.13
2023-11-07T10:33:24.697Z,100218.88
2023-11-07T10:35:51.294Z,100223.75
2023-11-07T10:38:20.542Z,100223.31
2023-11-07T10:40:47.015Z,100227.72
2023-11-07T10:43:13.409Z,100211.78
2023-11-07T10:45:39.796Z,100215.34
2023-11-07T10:48:06.316Z,100215.69
2023-11-07T10:50:32.787Z,100201.41
2023-11-07T10:52:59.216Z,100221.25
2023-11-07T10:55:25.645Z,100220.25
2023-11-07T10:57:51.998Z,100225.69
2023-11-07T11:00:18.415Z,100216.44
2023-11-07T11:02:44.983Z,100219.66
2023-11-07T11:05:11.499Z,100221.78
2023-11-07T11:07:37.917Z,100224.41
2023-11-07T11:10:04.384Z,100214.91
2023-11-07T11:12:30.795Z,100213.66
2023-11-07T11:14:57.232Z,100223.31
2023-11-07T11:17:23.711Z,100229.06
2023-11-07T11:19:53.052Z,100231.38
2023-11-07T11:22:19.534Z,100221.75
2023-11-07T11:24:46.009Z,100226.81
2023-11-07T11:27:15.064Z,100221.69
2023-11-07T11:29:41.657Z,100228.47
2023-11-07T11:32:08.090Z,100216.16
2023-11-07T11:34:37.343Z,100219.00
2023-11-07T11:37:03.821Z,100215.34
2023-11-07T11:39:30.305Z,100213.78
2023-11-07T11:41:56.903Z,100217.28
2023-11-07T11:44:23.327Z,100220.88
2023-11-07T11:46:49.806Z,100224.16
2023-11-07T11:49:16.472Z,100233.31
2023-11-07T11:51:42.943Z,100226.22
2023-11-07T11:54:09.539Z,100225.03
2023-11-07T11:56:36.075Z,100218.72
2023-11-07T11:59:02.492Z,100223.47
2023-11-07T12:01:28.917Z,100220.63
2023-11-07T12:03:55.480Z,100223.81
2023-11-07T12:06:22.423Z,100222.63
2023-11-07T12:08:48.965Z,100212.78
2023-11-07T12:11:15.536Z,100220.28
2023-11-07T12:13:41.955Z,100226.59
2023-11-07T12:16:08.349Z,100218.66
2023-11-07T12:18:34.912Z,100227.00
2023-11-07T12:21:01.471Z,100224.63
2023-11-07T12:23:27.925Z,100219.06
2023-11-07T12:25:54.403Z,100225.00
2023-11-07T12:28:20.906Z,100220.66
2023-11-07T12:30:47.330Z,100217.91
2023-11-07T12:33:13.851Z,100225.84
2023-11-07T12:35:40.409Z,100216.31
2023-11-07T12:38:06.961Z,100224.25
2023-11-07T12:40:33.634Z,100214.72
2023-11-07T12:43:00.052Z,100225.44
2023-11-07T12:45:26.468Z,100220.69
2023-11-07T12:47:53.074Z,100212.78
2023-11-07T12:50:19.529Z,100217.94
2023-11-07T12:52:45.972Z,100211.97
2023-11-07T12:55:13.281Z,100209.19
2023-11-07T12:57:39.724Z,100214.78
2023-11-07T13:00:06.177Z,100208.00
2023-11-07T13:02:32.701Z,100214.34
2023-11-07T13:04:59.168Z,100213.59
2023-11-07T13:07:25.606Z,100214.75
2023-11-07T13:09:52.064Z,100219.91
2023-11-07T13:12:18.545Z,100219.53
2023-11-07T13:14:44.966Z,100219.13
2023-11-07T13:17:11.425Z,100224.69
2023-11-07T13:19:37.912Z,100225.06
2023-11-07T13:22:04.431Z,100220.69
2023-11-07T13:24:30.905Z,100223.91
2023-11-07T13:26:57.381Z,100223.09
2023-11-07T13:29:23.827Z,100227.47
2023-11-07T13:31:50.296Z,100229.03
2023-11-07T13:34:16.942Z,100240.94
2023-11-07T13:36:43.421Z,100232.63
2023-11-07T13:39:09.945Z,100240.53
2023-11-07T13:41:36.531Z,100240.53
2023-11-07T13:44:02.949Z,100237.78
2023-11-07T13:46:29.389Z,100232.25
2023-11-07T13:48:56.208Z,100233.00
2023-11-07T13:51:22.816Z,100249.28
2023-11-07T13:53:49.311Z,100233.06
2023-11-07T13:56:16.608Z,100246.50
2023-11-07T13:58:43.019Z,100238.09
2023-11-07T14:01:09.552Z,100240.41
2023-11-07T14:03:36.139Z,100236.81
2023-11-07T14:06:02.764Z,100233.63
2023-11-07T14:08:29.252Z,100238.78
2023-11-07T14:10:55.689Z,100231.63
2023-11-07T14:13:22.121Z,100228.88
2023-11-07T14:15:48.540Z,100228.47
2023-11-07T14:18:20.118Z,100232.84
2023-11-07T14:20:53.120Z,100226.47
2023-11-07T14:23:21.594Z,100232.88
2023-11-07T14:25:48.200Z,100236.38
2023-11-07T14:28:15.708Z,100234.41
2023-11-07T14:30:43.122Z,100236.00
2023-11-07T14:33:10.617Z,100235.19
2023-11-07T14:35:37.200Z,100230.06
2023-11-07T14:38:03.810Z,100236.78
2023-11-07T14:40:30.421Z,100231.25
2023-11-07T14:42:57.041Z,100229.69
2023-11-07T14:45:23.608Z,100236.38
2023-11-07T14:47:51.282Z,100234.41
2023-11-07T14:50:18.715Z,100236.00
2023-11-07T14:52:45.316Z,100231.59
2023-11-07T14:55:12.704Z,100236.38
2023-11-07T14:57:39.161Z,100230.41
2023-11-07T15:00:05.634Z,100234.78
2023-11-07T15:02:32.226Z,100236.75
2023-11-07T15:04:58.807Z,100238.75
2023-11-07T15:07:25.310Z,100231.22
2023-11-07T15:09:52.646Z,100232.44
2023-11-07T15:12:19.248Z,100234.81
2023-11-07T15:14:45.768Z,100242.75
2023-11-07T15:17:13.085Z,100238.41
2023-11-07T15:19:39.512Z,100236.47
2023-11-07T15:22:05.964Z,100237.28
2023-11-07T15:24:32.386Z,100244.38
2023-11-07T15:26:59.020Z,100245.56
2023-11-07T15:29:25.478Z,100240.03
2023-11-07T15:31:51.901Z,100247.97
2023-11-07T15:34:18.431Z,100248.38
2023-11-07T15:36:44.862Z,100251.09
2023-11-07T15:39:11.336Z,100247.56
2023-11-07T15:41:37.778Z,100253.09
2023-11-07T15:44:04.214Z,100246.78
2023-11-07T15:46:30.628Z,100250.78
2023-11-07T15:48:57.139Z,100256.69
2023-11-07T15:51:25.710Z,100257.50
2023-11-07T15:53:53.713Z,100263.84
2023-11-07T15:56:20.175Z,100256.31
2023-11-07T15:58:46.620Z,100254.72
2023-11-07T16:01:13.029Z,100252.75
2023-11-07T16:03:39.589Z,100257.88
2023-11-07T16:06:06.140Z,100259.91
2023-11-07T16:08:32.624Z,100257.91
2023-11-07T16:10:59.055Z,100257.50
2023-11-07T16:13:25.487Z,100263.44
2023-11-07T16:15:51.891Z,100259.47
2023-11-07T16:18:19.312Z,100257.47
2023-11-07T16:20:45.825Z,100253.53
2023-11-07T16:23:12.300Z,100261.47
2023-11-07T16:25:38.723Z,100254.31
2023-11-07T16:28:06.481Z,100251.91
2023-11-07T16:30:33.202Z,100265.78
2023-11-07T16:32:59.703Z,100259.47
2023-11-07T16:35:26.253Z,100247.16
2023-11-07T16:37:52.815Z,100261.44
2023-11-07T16:40:19.301Z,100258.69
2023-11-07T16:42:45.719Z,100259.06
2023-11-07T16:45:15.148Z,100253.16
2023-11-07T16:47:43.082Z,100257.88
2023-11-07T16:50:10.673Z,100261.06
2023-11-07T16:52:37.104Z,100260.66
2023-11-07T16:55:03.548Z,100265.41
2023-11-07T16:57:30.068Z,100261.81
2023-11-07T16:59:56.555Z,100259.44
2023-11-07T17:02:24.054Z,100258.25
2023-11-07T17:04:52.558Z,100267.72
2023-11-07T17:07:19.386Z,100261.41
2023-11-07T17:09:45.821Z,100253.88
2023-11-07T17:12:13.351Z,100256.25
2023-11-07T17:14:40.748Z,100254.31
2023-11-07T17:17:08.153Z,100255.91
2023-11-07T17:19:34.596Z,100256.66
2023-11-07T17:22:01.064Z,100261.84
2023-11-07T17:24:27.938Z,100260.66
2023-11-07T17:26:54.396Z,100259.09
2023-11-07T17:29:21.138Z,100251.09
2023-11-07T17:31:47.680Z,100259.06
2023-11-07T17:34:14.368Z,100247.91
2023-11-07T17:36:44.342Z,100252.28
2023-11-07T17:39:11.748Z,100249.13
2023-11-07T17:41:38.218Z,100248.72
2023-11-07T17:44:05.007Z,100247.91
2023-11-07T17:46:31.427Z,100247.53
2023-11-07T17:48:57.973Z,100249.91
2023-11-07T17:51:24.510Z,100253.06
2023-11-07T17:53:52.025Z,100249.91
2023-11-07T17:56:19.527Z,100250.28
2023-11-07T17:58:46.063Z,100249.13
2023-11-07T18:01:13.050Z,100255.09
2023-11-07T18:03:39.555Z,100251.94
2023-11-07T18:06:06.991Z,100259.06
2023-11-07T18:08:34.398Z,100259.06
2023-11-07T18:11:01.957Z,100253.88
2023-11-07T18:13:28.480Z,100257.88
2023-11-07T18:15:54.952Z,100253.09
2023-11-07T18:18:21.471Z,100253.91
2023-11-07T18:20:47.953Z,100246.34
2023-11-07T18:23:15.505Z,100245.16
2023-11-07T18:25:42.037Z,100242.78
2023-11-07T18:28:09.875Z,100254.69
2023-11-07T18:30:39.112Z,100248.34
2023-11-07T18:33:05.716Z,100244.78
2023-11-07T18:35:32.318Z,100244.00
2023-11-07T18:37:58.990Z,100251.09
2023-11-07T18:40:25.614Z,100242.81
2023-11-07T18:42:53.007Z,100244.81
2023-11-07T18:45:19.657Z,100256.28
2023-11-07T18:47:49.157Z,100249.53
2023-11-07T18:50:16.509Z,100247.56
2023-11-07T18:52:43.869Z,100250.31
2023-11-07T18:55:10.688Z,100240.38
2023-11-07T18:57:38.106Z,100248.34
2023-11-07T19:00:04.619Z,100247.16
2023-11-07T19:02:31.957Z,100249.94
2023-11-07T19:04:58.392Z,100239.25
2023-11-07T19:07:25.168Z,100237.59
2023-11-07T19:09:51.786Z,100242.81
2023-11-07T19:12:19.226Z,100230.91
2023-11-07T19:14:45.737Z,100240.44
2023-11-07T19:17:13.107Z,100235.66
2023-11-07T19:19:42.364Z,100233.31
2023-11-07T19:22:11.636Z,100228.53
2023-11-07T19:24:39.029Z,100234.09
2023-11-07T19:27:06.413Z,100234.91
2023-11-07T19:29:33.741Z,100236.09
2023-11-07T19:32:00.183Z,100231.72
2023-11-07T19:34:26.798Z,100238.06
2023-11-07T19:36:55.512Z,100235.69
2023-11-07T19:39:22.244Z,100236.47
2023-11-07T19:41:48.818Z,100240.06
2023-11-07T19:44:16.273Z,100236.09
2023-11-07T19:46:46.314Z,100237.28
2023-11-07T19:49:14.809Z,100230.09
2023-11-07T19:51:44.147Z,100230.88
2023-11-07T19:54:10.785Z,100228.50
2023-11-07T19:56:38.382Z,100224.94
2023-11-07T19:59:05.337Z,100226.53
2023-11-07T20:01:31.846Z,100223.00
2023-11-07T20:04:00.476Z,100228.88
2023-11-07T20:06:27.135Z,100228.91
2023-11-07T20:08:53.653Z,100226.53
2023-11-07T20:11:22.018Z,100230.88
2023-11-07T20:13:48.591Z,100234.81
2023-11-07T20:16:15.175Z,100232.88
2023-11-07T20:18:41.977Z,100233.31
2023-11-07T20:21:08.700Z,100238.06
2023-11-07T20:23:35.246Z,100234.94
2023-11-07T20:26:03.622Z,100235.69
2023-11-07T20:28:30.142Z,100238.06
2023-11-07T20:30:56.669Z,100242.00
2023-11-07T20:33:25.142Z,100231.75
2023-11-07T20:35:54.761Z,100234.91
2023-11-07T20:38:22.229Z,100225.41
2023-11-07T20:40:48.746Z,100228.97
2023-11-07T20:43:15.244Z,100222.63
2023-11-07T20:45:43.686Z,100220.25
2023-11-07T20:48:13.128Z,100230.53
2023-11-07T20:50:39.743Z,100223.84
2023-11-07T20:53:09.795Z,100218.22
2023-11-07T20:55:36.306Z,100214.72
2023-11-07T20:58:06.275Z,100217.06
2023-11-07T21:00:35.110Z,100216.63
2023-11-07T21:03:04.554Z,100214.66
2023-11-07T21:05:31.157Z,100207.88
2023-11-07T21:07:59.547Z,100210.28
2023-11-07T21:10:26.138Z,100217.41
2023-11-07T21:12:52.667Z,100215.47
2023-11-07T21:15:19.253Z,100215.03
2023-11-07T21:17:45.794Z,100208.72
2023-11-07T21:20:12.319Z,100215.88
2023-11-07T21:22:41.653Z,100220.63
2023-11-07T21:25:09.041Z,100211.88
2023-11-07T21:27:38.361Z,100210.28
2023-11-07T21:30:04.989Z,100207.47
2023-11-07T21:32:32.424Z,100207.34
2023-11-07T21:34:59.006Z,100205.38
2023-11-07T21:37:28.247Z,100207.38
2023-11-07T21:39:54.748Z,100202.19
2023-11-07T21:42:21.220Z,100211.31
2023-11-07T21:44:47.707Z,100203.34
2023-11-07T21:47:15.997Z,100207.69
2023-11-07T21:49:43.433Z,100224.34
2023-11-07T21:52:09.942Z,100217.22
2023-11-07T21:54:36.489Z,100214.81
2023-11-07T21:57:04.883Z,100217.22
2023-11-07T21:59:31.388Z,100223.16
2023-11-07T22:01:57.824Z,100210.44
2023-11-07T22:04:27.090Z,100215.59
2023-11-07T22:06:53.681Z,100217.59
2023-11-07T22:09:20.253Z,100214.03
2023-11-07T22:11:46.822Z,100213.63
2023-11-07T22:14:14.192Z,100213.22
2023-11-07T22:16:40.757Z,100207.66
2023-11-07T22:19:10.041Z,100202.13
2023-11-07T22:21:38.523Z,100210.88
2023-11-07T22:24:07.025Z,100210.88
2023-11-07T22:26:33.541Z,100205.31
2023-11-07T22:29:00.133Z,100211.25
2023-11-07T22:31:26.703Z,100206.09
2023-11-07T22:33:53.526Z,100205.28
2023-11-07T22:36:21.042Z,100209.66
2023-11-07T22:38:50.325Z,100208.84
2023-11-07T22:41:16.784Z,100201.72
2023-11-07T22:43:46.070Z,100202.53
2023-11-07T22:46:12.595Z,100204.50
2023-11-07T22:48:41.938Z,100197.78
2023-11-07T22:51:08.530Z,100191.41
2023-11-07T22:53:35.058Z,100200.97
2023-11-07T22:56:04.415Z,100193.00
2023-11-07T22:58:30.917Z,100195.78
2023-11-07T23:00:59.279Z,100192.22
2023-11-07T23:03:27.626Z,100187.84
2023-11-07T23:05:54.277Z,100183.91
2023-11-07T23:08:20.909Z,100183.09
2023-11-07T23:10:49.270Z,100187.91
2023-11-07T23:13:15.767Z,100178.78
2023-11-07T23:15:44.110Z,100179.94
2023-11-07T23:18:11.641Z,100183.47
2023-11-07T23:20:38.301Z,100174.75
2023-11-07T23:23:07.558Z,100171.19
2023-11-07T23:25:34.052Z,100176.00
2023-11-07T23:28:03.311Z,100170.44
2023-11-07T23:30:29.911Z,100174.38
2023-11-07T23:33:01.006Z,100168.41
2023-11-07T23:35:27.863Z,100163.25
2023-11-07T23:37:56.213Z,100165.63
2023-11-07T23:40:22.753Z,100166.03
2023-11-07T23:42:49.288Z,100167.22
2023-11-07T23:45:17.628Z,100159.28
2023-11-07T23:47:44.136Z,100162.44
2023-11-07T23:50:10.606Z,100156.47
2023-11-07T23:52:38.948Z,100174.75
2023-11-07T23:55:05.456Z,100176.34
2023-11-07T23:57:31.969Z,100166.84
2023-11-07T23:59:58.530Z,100168.03
